createdAt,value
2023-05-13T00:00:10.606Z,23.32
2023-05-13T00:01:10.642Z,23.33
2023-05-13T00:02:10.695Z,23.32
2023-05-13T00:03:10.770Z,23.31
2023-05-13T00:04:10.761Z,23.32
2023-05-13T00:05:10.818Z,23.32
2023-05-13T00:06:10.991Z,23.32
2023-05-13T00:07:10.917Z,23.31
2023-05-13T00:08:10.969Z,23.31
2023-05-13T00:09:10.987Z,23.31
2023-05-13T00:10:11.016Z,23.31
2023-05-13T00:11:11.049Z,23.31
2023-05-13T00:12:11.106Z,23.30
2023-05-13T00:13:11.130Z,23.30
2023-05-13T00:14:11.158Z,23.30
2023-05-13T00:15:11.207Z,23.30
2023-05-13T00:16:11.308Z,23.30
2023-05-13T00:17:11.293Z,23.30
2023-05-13T00:18:11.335Z,23.30
2023-05-13T00:19:11.435Z,23.30
2023-05-13T00:20:11.336Z,23.30
2023-05-13T00:21:11.348Z,23.30
2023-05-13T00:22:11.401Z,23.30
2023-05-13T00:23:11.453Z,23.30
2023-05-13T00:24:11.482Z,23.30
2023-05-13T00:25:11.520Z,23.29
2023-05-13T00:26:11.592Z,23.29
2023-05-13T00:27:11.670Z,23.30
2023-05-13T00:28:11.677Z,23.30
2023-05-13T00:29:11.700Z,23.29
2023-05-13T00:30:11.748Z,23.29
2023-05-13T00:31:11.780Z,23.29
2023-05-13T00:32:11.812Z,23.29
2023-05-13T00:33:11.838Z,23.29
2023-05-13T00:34:11.904Z,23.28
2023-05-13T00:35:11.933Z,23.29
2023-05-13T00:36:11.966Z,23.28
2023-05-13T00:37:12.012Z,23.28
2023-05-13T00:38:12.021Z,23.28
2023-05-13T00:39:12.052Z,23.28
2023-05-13T00:40:12.083Z,23.28
2023-05-13T00:41:12.135Z,23.28
2023-05-13T00:42:12.161Z,23.27
2023-05-13T00:43:12.224Z,23.28
2023-05-13T00:44:14.372Z,23.28
2023-05-13T00:45:12.258Z,23.27
2023-05-13T00:46:12.366Z,23.27
2023-05-13T00:47:12.345Z,23.27
2023-05-13T00:48:12.439Z,23.27
2023-05-13T00:49:12.421Z,23.26
2023-05-13T00:50:12.437Z,23.27
2023-05-13T00:51:12.506Z,23.27
2023-05-13T00:52:12.532Z,23.26
2023-05-13T00:53:12.638Z,23.27
2023-05-13T00:54:12.605Z,23.26
2023-05-13T00:55:12.631Z,23.27
2023-05-13T00:56:12.726Z,23.26
2023-05-13T00:57:12.701Z,23.26
2023-05-13T00:58:12.737Z,23.26
2023-05-13T00:59:12.753Z,23.26
2023-05-13T01:00:12.793Z,23.26
2023-05-13T01:01:12.818Z,23.25
2023-05-13T01:02:12.863Z,23.26
2023-05-13T01:03:13.011Z,23.25
2023-05-13T01:04:12.892Z,23.25
2023-05-13T01:05:12.926Z,23.24
2023-05-13T01:06:12.915Z,23.25
2023-05-13T01:07:12.939Z,23.24
2023-05-13T01:08:12.943Z,23.24
2023-05-13T01:09:12.963Z,23.24
2023-05-13T01:10:12.992Z,23.23
2023-05-13T01:11:13.014Z,23.23
2023-05-13T01:12:13.050Z,23.23
2023-05-13T01:13:13.093Z,23.23
2023-05-13T01:14:13.150Z,23.23
2023-05-13T01:15:13.176Z,23.24
2023-05-13T01:16:13.219Z,23.23
2023-05-13T01:17:13.304Z,23.23
2023-05-13T01:18:13.314Z,23.23
2023-05-13T01:19:13.428Z,23.23
2023-05-13T01:20:13.426Z,23.23
2023-05-13T01:21:13.473Z,23.22
2023-05-13T01:22:13.496Z,23.23
2023-05-13T01:23:13.564Z,23.22
2023-05-13T01:24:13.650Z,23.23
2023-05-13T01:25:13.683Z,23.22
2023-05-13T01:26:13.705Z,23.23
2023-05-13T01:27:13.744Z,23.22
2023-05-13T01:28:13.785Z,23.22
2023-05-13T01:29:13.833Z,23.22
2023-05-13T01:30:13.865Z,23.21
2023-05-13T01:31:13.947Z,23.22
2023-05-13T01:32:13.966Z,23.21
2023-05-13T01:33:14.008Z,23.21
2023-05-13T01:34:14.052Z,23.22
2023-05-13T01:35:14.061Z,23.22
2023-05-13T01:36:14.116Z,23.22
2023-05-13T01:37:14.130Z,23.22
2023-05-13T01:38:14.222Z,23.21
2023-05-13T01:39:14.213Z,23.21
2023-05-13T01:40:30.540Z,23.22
2023-05-13T01:41:15.279Z,23.21
2023-05-13T01:42:14.266Z,23.21
2023-05-13T01:43:14.245Z,23.22
2023-05-13T01:44:14.254Z,23.21
2023-05-13T01:45:14.247Z,23.21
2023-05-13T01:46:14.314Z,23.21
2023-05-13T01:47:14.231Z,23.20
2023-05-13T01:48:14.254Z,23.20
2023-05-13T01:49:14.214Z,23.20
2023-05-13T01:50:14.209Z,23.20
2023-05-13T01:51:14.199Z,23.19
2023-05-13T01:52:14.192Z,23.20
2023-05-13T01:53:14.250Z,23.19
2023-05-13T01:54:14.262Z,23.20
2023-05-13T01:55:14.333Z,23.20
2023-05-13T01:56:14.380Z,23.19
2023-05-13T01:57:14.420Z,23.19
2023-05-13T01:58:14.455Z,23.19
2023-05-13T01:59:14.504Z,23.19
2023-05-13T02:00:14.605Z,23.19
2023-05-13T02:01:14.595Z,23.19
2023-05-13T02:02:14.684Z,23.19
2023-05-13T02:03:14.803Z,23.19
2023-05-13T02:04:14.740Z,23.18
2023-05-13T02:05:14.764Z,23.19
2023-05-13T02:06:14.782Z,23.18
2023-05-13T02:07:14.818Z,23.19
2023-05-13T02:08:14.883Z,23.18
2023-05-13T02:09:14.944Z,23.18
2023-05-13T02:10:14.932Z,23.17
2023-05-13T02:11:14.978Z,23.17
2023-05-13T02:12:14.994Z,23.17
2023-05-13T02:13:15.066Z,23.18
2023-05-13T02:14:15.077Z,23.17
2023-05-13T02:15:15.142Z,23.17
2023-05-13T02:16:15.197Z,23.17
2023-05-13T02:17:15.169Z,23.17
2023-05-13T02:18:15.214Z,23.18
2023-05-13T02:19:15.198Z,23.17
2023-05-13T02:20:15.226Z,23.17
2023-05-13T02:21:15.261Z,23.18
2023-05-13T02:22:15.278Z,23.17
2023-05-13T02:23:15.324Z,23.17
2023-05-13T02:24:15.343Z,23.16
2023-05-13T02:25:15.408Z,23.16
2023-05-13T02:26:15.442Z,23.16
2023-05-13T02:27:15.482Z,23.16
2023-05-13T02:28:15.492Z,23.16
2023-05-13T02:29:15.560Z,23.16
2023-05-13T02:30:15.573Z,23.16
2023-05-13T02:31:15.589Z,23.15
2023-05-13T02:32:15.658Z,23.15
2023-05-13T02:33:15.663Z,23.15
2023-05-13T02:34:15.683Z,23.15
2023-05-13T02:35:15.679Z,23.16
2023-05-13T02:36:15.725Z,23.16
2023-05-13T02:37:15.743Z,23.15
2023-05-13T02:38:15.794Z,23.15
2023-05-13T02:39:15.825Z,23.15
2023-05-13T02:40:15.849Z,23.15
2023-05-13T02:41:15.857Z,23.15
2023-05-13T02:42:15.874Z,23.15
2023-05-13T02:43:15.897Z,23.14
2023-05-13T02:44:15.934Z,23.15
2023-05-13T02:45:15.967Z,23.15
2023-05-13T02:46:16.029Z,23.14
2023-05-13T02:47:16.037Z,23.15
2023-05-13T02:48:16.087Z,23.14
2023-05-13T02:49:16.114Z,23.14
2023-05-13T02:50:16.158Z,23.15
2023-05-13T02:51:16.186Z,23.15
2023-05-13T02:52:16.216Z,23.15
2023-05-13T02:53:16.225Z,23.14
2023-05-13T02:54:16.247Z,23.15
2023-05-13T02:55:16.324Z,23.14
2023-05-13T02:56:16.352Z,23.15
2023-05-13T02:57:16.335Z,23.14
2023-05-13T02:58:16.341Z,23.14
2023-05-13T02:59:16.362Z,23.14
2023-05-13T03:00:16.391Z,23.14
2023-05-13T03:01:16.501Z,23.15
2023-05-13T03:02:16.523Z,23.14
2023-05-13T03:03:16.545Z,23.14
2023-05-13T03:04:16.513Z,23.14
2023-05-13T03:05:16.566Z,23.14
2023-05-13T03:06:16.582Z,23.14
2023-05-13T03:07:16.610Z,23.14
2023-05-13T03:08:16.665Z,23.13
2023-05-13T03:09:16.701Z,23.14
2023-05-13T03:10:16.714Z,23.13
2023-05-13T03:11:16.787Z,23.13
2023-05-13T03:12:16.820Z,23.14
2023-05-13T03:13:16.893Z,23.13
2023-05-13T03:14:16.883Z,23.12
2023-05-13T03:15:16.928Z,23.14
2023-05-13T03:16:16.991Z,23.13
2023-05-13T03:17:16.971Z,23.13
2023-05-13T03:18:17.000Z,23.13
2023-05-13T03:19:17.133Z,23.12
2023-05-13T03:20:17.074Z,23.13
2023-05-13T03:21:17.096Z,23.12
2023-05-13T03:22:17.166Z,23.11
2023-05-13T03:23:17.219Z,23.11
2023-05-13T03:24:17.235Z,23.12
2023-05-13T03:25:17.272Z,23.11
2023-05-13T03:26:17.293Z,23.11
2023-05-13T03:27:17.311Z,23.12
2023-05-13T03:28:17.368Z,23.11
2023-05-13T03:29:17.381Z,23.12
2023-05-13T03:30:17.414Z,23.12
2023-05-13T03:31:17.515Z,23.11
2023-05-13T03:32:17.597Z,23.11
2023-05-13T03:33:17.520Z,23.11
2023-05-13T03:34:17.536Z,23.11
2023-05-13T03:35:17.578Z,23.10
2023-05-13T03:36:17.629Z,23.11
2023-05-13T03:37:17.655Z,23.11
2023-05-13T03:38:17.693Z,23.11
2023-05-13T03:39:17.713Z,23.11
2023-05-13T03:40:17.768Z,23.11
2023-05-13T03:41:17.775Z,23.10
2023-05-13T03:42:17.819Z,23.11
2023-05-13T03:43:17.845Z,23.11
2023-05-13T03:44:17.899Z,23.11
2023-05-13T03:45:17.938Z,23.11
2023-05-13T03:46:18.012Z,23.10
2023-05-13T03:47:18.011Z,23.11
2023-05-13T03:48:18.053Z,23.10
2023-05-13T03:49:18.062Z,23.10
2023-05-13T03:50:18.113Z,23.10
2023-05-13T03:51:18.126Z,23.10
2023-05-13T03:52:18.154Z,23.10
2023-05-13T03:53:18.234Z,23.09
2023-05-13T03:54:18.256Z,23.10
2023-05-13T03:55:18.276Z,23.10
2023-05-13T03:56:18.299Z,23.09
2023-05-13T03:57:18.333Z,23.10
2023-05-13T03:58:18.390Z,23.09
2023-05-13T03:59:18.419Z,23.10
2023-05-13T04:00:18.535Z,23.09
2023-05-13T04:01:18.488Z,23.09
2023-05-13T04:02:18.638Z,23.09
2023-05-13T04:03:18.570Z,23.09
2023-05-13T04:04:18.564Z,23.09
2023-05-13T04:05:18.702Z,23.09
2023-05-13T04:06:18.568Z,23.09
2023-05-13T04:07:18.604Z,23.09
2023-05-13T04:08:18.662Z,23.09
2023-05-13T04:09:18.690Z,23.09
2023-05-13T04:10:18.810Z,23.09
2023-05-13T04:11:18.766Z,23.10
2023-05-13T04:12:18.755Z,23.09
2023-05-13T04:13:18.830Z,23.09
2023-05-13T04:14:18.866Z,23.09
2023-05-13T04:15:18.854Z,23.09
2023-05-13T04:16:18.909Z,23.09
2023-05-13T04:17:18.945Z,23.09
2023-05-13T04:18:18.922Z,23.09
2023-05-13T04:19:19.110Z,23.09
2023-05-13T04:20:19.018Z,23.10
2023-05-13T04:21:19.003Z,23.10
2023-05-13T04:22:19.042Z,23.10
2023-05-13T04:23:19.080Z,23.09
2023-05-13T04:24:19.154Z,23.09
2023-05-13T04:25:19.181Z,23.09
2023-05-13T04:26:19.215Z,23.10
2023-05-13T04:27:19.247Z,23.10
2023-05-13T04:28:19.242Z,23.09
2023-05-13T04:29:19.295Z,23.10
2023-05-13T04:30:19.549Z,23.10
2023-05-13T04:31:19.410Z,23.10
2023-05-13T04:32:19.380Z,23.10
2023-05-13T04:33:19.461Z,23.10
2023-05-13T04:34:19.449Z,23.10
2023-05-13T04:35:19.545Z,23.10
2023-05-13T04:36:19.547Z,23.10
2023-05-13T04:37:19.594Z,23.10
2023-05-13T04:38:19.576Z,23.10
2023-05-13T04:39:19.616Z,23.10
2023-05-13T04:40:19.726Z,23.09
2023-05-13T04:41:19.633Z,23.10
2023-05-13T04:42:19.694Z,23.10
2023-05-13T04:43:19.709Z,23.11
2023-05-13T04:44:19.732Z,23.10
2023-05-13T04:45:19.767Z,23.11
2023-05-13T04:46:19.814Z,23.11
2023-05-13T04:47:19.848Z,23.11
2023-05-13T04:48:19.819Z,23.10
2023-05-13T04:49:19.836Z,23.11
2023-05-13T04:50:19.921Z,23.11
2023-05-13T04:51:19.915Z,23.11
2023-05-13T04:52:19.926Z,23.12
2023-05-13T04:53:19.970Z,23.11
2023-05-13T04:54:19.995Z,23.11
2023-05-13T04:55:20.044Z,23.11
2023-05-13T04:56:20.049Z,23.12
2023-05-13T04:57:20.069Z,23.11
2023-05-13T04:58:20.083Z,23.13
2023-05-13T04:59:20.129Z,23.12
2023-05-13T05:00:20.357Z,23.13
2023-05-13T05:01:20.246Z,23.12
2023-05-13T05:02:20.213Z,23.12
2023-05-13T05:03:20.243Z,23.13
2023-05-13T05:04:20.350Z,23.14
2023-05-13T05:05:20.287Z,23.13
2023-05-13T05:06:20.306Z,23.14
2023-05-13T05:07:20.356Z,23.13
2023-05-13T05:08:20.375Z,23.14
2023-05-13T05:09:20.441Z,23.14
2023-05-13T05:10:20.741Z,23.15
2023-05-13T05:11:20.474Z,23.14
2023-05-13T05:12:20.507Z,23.14
2023-05-13T05:13:20.522Z,23.13
2023-05-13T05:14:20.569Z,23.14
2023-05-13T05:15:20.594Z,23.14
2023-05-13T05:16:20.621Z,23.13
2023-05-13T05:17:20.662Z,23.13
2023-05-13T05:18:20.709Z,23.13
2023-05-13T05:19:20.740Z,23.14
2023-05-13T05:20:20.879Z,23.14
2023-05-13T05:21:20.746Z,23.14
2023-05-13T05:22:20.840Z,23.14
2023-05-13T05:23:20.807Z,23.15
2023-05-13T05:24:20.829Z,23.14
2023-05-13T05:25:20.854Z,23.15
2023-05-13T05:26:20.973Z,23.14
2023-05-13T05:27:20.890Z,23.15
2023-05-13T05:28:20.908Z,23.16
2023-05-13T05:29:20.947Z,23.16
2023-05-13T05:30:21.162Z,23.16
2023-05-13T05:31:21.037Z,23.16
2023-05-13T05:32:21.080Z,23.16
2023-05-13T05:33:21.090Z,23.16
2023-05-13T05:34:21.163Z,23.16
2023-05-13T05:35:21.173Z,23.16
2023-05-13T05:36:21.216Z,23.16
2023-05-13T05:37:21.241Z,23.17
2023-05-13T05:38:21.304Z,23.17
2023-05-13T05:39:21.346Z,23.18
2023-05-13T05:40:21.773Z,23.18
2023-05-13T05:41:21.454Z,23.18
2023-05-13T05:42:21.488Z,23.18
2023-05-13T05:43:21.521Z,23.18
2023-05-13T05:44:21.588Z,23.18
2023-05-13T05:45:21.628Z,23.18
2023-05-13T05:46:21.731Z,23.19
2023-05-13T05:47:21.893Z,23.20
2023-05-13T05:48:21.715Z,23.19
2023-05-13T05:49:21.767Z,23.21
2023-05-13T05:50:21.894Z,23.20
2023-05-13T05:51:21.840Z,23.20
2023-05-13T05:52:21.887Z,23.20
2023-05-13T05:53:21.918Z,23.21
2023-05-13T05:54:21.956Z,23.21
2023-05-13T05:55:21.985Z,23.21
2023-05-13T05:56:22.047Z,23.21
2023-05-13T05:57:22.097Z,23.21
2023-05-13T05:58:22.152Z,23.22
2023-05-13T05:59:22.185Z,23.22
2023-05-13T06:00:22.356Z,23.21
2023-05-13T06:01:22.241Z,23.21
2023-05-13T06:02:22.350Z,23.22
2023-05-13T06:03:22.519Z,23.22
2023-05-13T06:04:22.411Z,23.23
2023-05-13T06:05:22.384Z,23.23
2023-05-13T06:06:22.416Z,23.23
2023-05-13T06:07:22.439Z,23.22
2023-05-13T06:08:22.474Z,23.22
2023-05-13T06:09:22.465Z,23.22
2023-05-13T06:10:22.837Z,23.23
2023-05-13T06:11:22.502Z,23.23
2023-05-13T06:12:22.532Z,23.23
2023-05-13T06:13:22.557Z,23.24
2023-05-13T06:14:22.544Z,23.25
2023-05-13T06:15:22.570Z,23.24
2023-05-13T06:16:22.624Z,23.24
2023-05-13T06:17:22.755Z,23.24
2023-05-13T06:18:22.821Z,23.24
2023-05-13T06:19:22.675Z,23.24
2023-05-13T06:20:23.175Z,23.25
2023-05-13T06:21:22.735Z,23.25
2023-05-13T06:22:22.800Z,23.25
2023-05-13T06:23:22.807Z,23.25
2023-05-13T06:24:22.860Z,23.24
2023-05-13T06:25:22.926Z,23.24
2023-05-13T06:26:22.958Z,23.25
2023-05-13T06:27:22.983Z,23.25
2023-05-13T06:28:23.061Z,23.25
2023-05-13T06:29:23.108Z,23.25
2023-05-13T06:30:23.336Z,23.25
2023-05-13T06:31:23.218Z,23.25
2023-05-13T06:32:23.264Z,23.26
2023-05-13T06:33:23.296Z,23.26
2023-05-13T06:34:23.302Z,23.26
2023-05-13T06:35:23.333Z,23.26
2023-05-13T06:36:23.334Z,23.25
2023-05-13T06:37:23.388Z,23.26
2023-05-13T06:38:23.416Z,23.26
2023-05-13T06:39:23.537Z,23.27
2023-05-13T06:40:23.807Z,23.26
2023-05-13T06:41:23.586Z,23.27
2023-05-13T06:42:23.615Z,23.27
2023-05-13T06:43:23.661Z,23.27
2023-05-13T06:44:23.692Z,23.27
2023-05-13T06:45:23.725Z,23.28
2023-05-13T06:46:23.785Z,23.28
2023-05-13T06:47:24.086Z,23.27
2023-05-13T06:48:23.876Z,23.28
2023-05-13T06:49:23.915Z,23.28
2023-05-13T06:50:24.186Z,23.28
2023-05-13T06:51:24.006Z,23.28
2023-05-13T06:52:24.060Z,23.29
2023-05-13T06:53:24.097Z,23.29
2023-05-13T06:54:24.152Z,23.29
2023-05-13T06:55:24.185Z,23.30
2023-05-13T06:56:24.228Z,23.29
2023-05-13T06:57:32.332Z,23.29
2023-05-13T06:58:25.236Z,23.29
2023-05-13T06:59:24.238Z,23.30
2023-05-13T07:00:24.418Z,23.30
2023-05-13T07:01:24.284Z,23.30
2023-05-13T07:02:24.249Z,23.30
2023-05-13T07:03:24.258Z,23.30
2023-05-13T07:04:24.211Z,23.31
2023-05-13T07:05:24.182Z,23.31
2023-05-13T07:06:24.186Z,23.30
2023-05-13T07:07:24.175Z,23.31
2023-05-13T07:08:24.149Z,23.32
2023-05-13T07:09:24.228Z,23.31
2023-05-13T07:10:24.506Z,23.31
2023-05-13T07:11:24.326Z,23.32
2023-05-13T07:12:24.365Z,23.32
2023-05-13T07:13:24.421Z,23.32
2023-05-13T07:14:24.453Z,23.32
2023-05-13T07:15:24.491Z,23.33
2023-05-13T07:16:24.555Z,23.33
2023-05-13T07:17:24.654Z,23.32
2023-05-13T07:18:24.609Z,23.33
2023-05-13T07:19:24.597Z,23.33
2023-05-13T07:20:24.750Z,23.33
2023-05-13T07:21:24.614Z,23.33
2023-05-13T07:22:24.632Z,23.33
2023-05-13T07:23:24.637Z,23.33
2023-05-13T07:24:24.666Z,23.33
2023-05-13T07:25:24.710Z,23.33
2023-05-13T07:26:24.768Z,23.33
2023-05-13T07:27:24.780Z,23.34
2023-05-13T07:28:24.856Z,23.34
2023-05-13T07:29:25.853Z,23.34
2023-05-13T07:30:25.239Z,23.35
2023-05-13T07:31:25.068Z,23.35
2023-05-13T07:32:25.123Z,23.35
2023-05-13T07:33:25.047Z,23.36
2023-05-13T07:34:25.096Z,23.36
2023-05-13T07:35:25.132Z,23.36
2023-05-13T07:36:25.176Z,23.36
2023-05-13T07:37:25.197Z,23.37
2023-05-13T07:38:25.248Z,23.37
2023-05-13T07:39:25.313Z,23.37
2023-05-13T07:40:25.401Z,23.37
2023-05-13T07:41:25.401Z,23.37
2023-05-13T07:42:25.449Z,23.38
2023-05-13T07:43:25.469Z,23.38
2023-05-13T07:44:25.530Z,23.39
2023-05-13T07:45:25.531Z,23.39
2023-05-13T07:46:25.580Z,23.38
2023-05-13T07:47:25.599Z,23.39
2023-05-13T07:48:25.652Z,23.40
2023-05-13T07:49:25.642Z,23.40
2023-05-13T07:50:25.635Z,23.40
2023-05-13T07:51:25.647Z,23.41
2023-05-13T07:52:25.658Z,23.41
2023-05-13T07:53:25.681Z,23.42
2023-05-13T07:54:25.733Z,23.41
2023-05-13T07:55:25.729Z,23.42
2023-05-13T07:56:25.764Z,23.42
2023-05-13T07:57:25.780Z,23.43
2023-05-13T07:58:25.826Z,23.43
2023-05-13T07:59:25.884Z,23.44
2023-05-13T08:00:25.905Z,23.44
2023-05-13T08:01:25.966Z,23.45
2023-05-13T08:02:26.027Z,23.45
2023-05-13T08:03:26.129Z,23.46
2023-05-13T08:04:26.208Z,23.46
2023-05-13T08:05:26.079Z,23.46
2023-05-13T08:06:26.102Z,23.47
2023-05-13T08:07:26.149Z,23.46
2023-05-13T08:08:26.163Z,23.46
2023-05-13T08:09:26.204Z,23.46
2023-05-13T08:10:26.252Z,23.47
2023-05-13T08:11:26.317Z,23.47
2023-05-13T08:12:26.314Z,23.47
2023-05-13T08:13:26.335Z,23.48
2023-05-13T08:14:26.355Z,23.48
2023-05-13T08:15:26.391Z,23.48
2023-05-13T08:16:26.478Z,23.49
2023-05-13T08:17:26.498Z,23.49
2023-05-13T08:18:26.535Z,23.49
2023-05-13T08:19:26.560Z,23.50
2023-05-13T08:20:26.583Z,23.50
2023-05-13T08:21:26.592Z,23.50
2023-05-13T08:22:26.627Z,23.51
2023-05-13T08:23:40.476Z,23.51
2023-05-13T08:24:27.737Z,23.51
2023-05-13T08:25:26.655Z,23.51
2023-05-13T08:26:26.641Z,23.52
2023-05-13T08:27:26.628Z,23.52
2023-05-13T08:28:26.614Z,23.53
2023-05-13T08:29:26.617Z,23.53
2023-05-13T08:30:26.590Z,23.54
2023-05-13T08:31:26.607Z,23.54
2023-05-13T08:32:26.597Z,23.55
2023-05-13T08:33:26.609Z,23.54
2023-05-13T08:34:26.571Z,23.54
2023-05-13T08:35:26.556Z,23.55
2023-05-13T08:36:26.561Z,23.56
2023-05-13T08:37:26.553Z,23.57
2023-05-13T08:38:26.609Z,23.57
2023-05-13T08:39:26.539Z,23.58
2023-05-13T08:40:26.624Z,23.59
2023-05-13T08:41:26.598Z,23.59
2023-05-13T08:42:26.645Z,23.60
2023-05-13T08:43:26.657Z,23.60
2023-05-13T08:44:26.708Z,23.61
2023-05-13T08:45:26.711Z,23.63
2023-05-13T08:46:26.791Z,23.64
2023-05-13T08:47:26.825Z,23.64
2023-05-13T08:48:26.834Z,23.65
2023-05-13T08:49:26.862Z,23.66
2023-05-13T08:50:26.947Z,23.67
2023-05-13T08:51:26.966Z,23.67
2023-05-13T08:52:27.010Z,23.68
2023-05-13T08:53:27.047Z,23.69
2023-05-13T08:54:27.067Z,23.69
2023-05-13T08:55:27.108Z,23.70
2023-05-13T08:56:27.153Z,23.71
2023-05-13T08:57:27.181Z,23.72
2023-05-13T08:58:27.228Z,23.71
2023-05-13T08:59:27.250Z,23.73
2023-05-13T09:00:27.263Z,23.73
2023-05-13T09:01:27.320Z,23.74
2023-05-13T09:02:27.346Z,23.75
2023-05-13T09:03:27.331Z,23.75
2023-05-13T09:04:27.362Z,23.75
2023-05-13T09:05:27.720Z,23.75
2023-05-13T09:06:27.361Z,23.76
2023-05-13T09:07:27.390Z,23.78
2023-05-13T09:08:27.396Z,23.77
2023-05-13T09:09:27.396Z,23.78
2023-05-13T09:10:27.409Z,23.79
2023-05-13T09:11:27.450Z,23.79
2023-05-13T09:12:27.494Z,23.79
2023-05-13T09:13:27.540Z,23.80
2023-05-13T09:14:27.561Z,23.80
2023-05-13T09:15:27.636Z,23.81
2023-05-13T09:16:27.675Z,23.82
2023-05-13T09:17:27.678Z,23.82
2023-05-13T09:18:27.788Z,23.82
2023-05-13T09:19:27.892Z,23.84
2023-05-13T09:20:27.721Z,23.84
2023-05-13T09:21:27.733Z,23.84
2023-05-13T09:22:27.790Z,23.85
2023-05-13T09:23:27.830Z,23.86
2023-05-13T09:24:27.874Z,23.86
2023-05-13T09:25:27.881Z,23.86
2023-05-13T09:26:27.907Z,23.87
2023-05-13T09:27:27.925Z,23.87
2023-05-13T09:28:27.952Z,23.88
2023-05-13T09:29:27.962Z,23.88
2023-05-13T09:30:28.026Z,23.89
2023-05-13T09:31:28.070Z,23.89
2023-05-13T09:32:28.142Z,23.90
2023-05-13T09:33:28.136Z,23.90
2023-05-13T09:34:28.175Z,23.92
2023-05-13T09:35:28.199Z,23.91
2023-05-13T09:36:28.219Z,23.92
2023-05-13T09:37:28.257Z,23.93
2023-05-13T09:38:28.281Z,23.94
2023-05-13T09:39:28.282Z,23.94
2023-05-13T09:40:28.321Z,23.94
2023-05-13T09:41:28.342Z,23.95
2023-05-13T09:42:28.355Z,23.95
2023-05-13T09:43:28.384Z,23.96
2023-05-13T09:44:28.397Z,23.96
2023-05-13T09:45:28.425Z,23.97
2023-05-13T09:46:28.531Z,23.98
2023-05-13T09:47:28.539Z,23.99
2023-05-13T09:48:28.554Z,23.99
2023-05-13T09:49:28.612Z,23.99
2023-05-13T09:50:28.646Z,24.00
2023-05-13T09:51:28.633Z,24.02
2023-05-13T09:52:28.662Z,24.02
2023-05-13T09:53:28.770Z,24.03
2023-05-13T09:54:28.707Z,24.02
2023-05-13T09:55:28.771Z,24.04
2023-05-13T09:56:28.812Z,24.04
2023-05-13T09:57:28.811Z,24.05
2023-05-13T09:58:28.863Z,24.06
2023-05-13T09:59:28.890Z,24.06
2023-05-13T10:00:32.606Z,24.07
2023-05-13T10:01:28.973Z,24.07
2023-05-13T10:02:28.991Z,24.07
2023-05-13T10:03:28.990Z,24.09
2023-05-13T10:04:29.049Z,24.09
2023-05-13T10:05:28.904Z,24.10
2023-05-13T10:06:28.890Z,24.10
2023-05-13T10:07:28.903Z,24.12
2023-05-13T10:08:28.876Z,24.11
2023-05-13T10:09:28.882Z,24.12
2023-05-13T10:10:28.884Z,24.13
2023-05-13T10:11:28.880Z,24.13
2023-05-13T10:12:28.844Z,24.13
2023-05-13T10:13:28.855Z,24.14
2023-05-13T10:14:28.839Z,24.15
2023-05-13T10:15:28.848Z,24.15
2023-05-13T10:16:28.857Z,24.16
2023-05-13T10:17:28.823Z,24.17
2023-05-13T10:18:28.940Z,24.18
2023-05-13T10:19:28.812Z,24.20
2023-05-13T10:20:28.803Z,24.20
2023-05-13T10:21:28.782Z,24.20
2023-05-13T10:22:28.780Z,24.22
2023-05-13T10:23:28.769Z,24.24
2023-05-13T10:24:28.765Z,24.26
2023-05-13T10:25:28.828Z,24.27
2023-05-13T10:26:28.742Z,24.29
2023-05-13T10:27:28.747Z,24.29
2023-05-13T10:28:28.723Z,24.30
2023-05-13T10:29:28.724Z,24.31
2023-05-13T10:30:28.778Z,24.33
2023-05-13T10:31:28.829Z,24.34
2023-05-13T10:32:28.831Z,24.37
2023-05-13T10:33:28.815Z,24.39
2023-05-13T10:34:28.951Z,24.41
2023-05-13T10:35:28.956Z,24.44
2023-05-13T10:36:28.981Z,24.46
2023-05-13T10:37:29.013Z,24.49
2023-05-13T10:38:29.089Z,24.50
2023-05-13T10:39:29.113Z,24.50
2023-05-13T10:40:29.131Z,24.51
2023-05-13T10:41:29.141Z,24.53
2023-05-13T10:42:29.165Z,24.53
2023-05-13T10:43:29.155Z,24.55
2023-05-13T10:44:29.167Z,24.58
2023-05-13T10:45:29.193Z,24.60
2023-05-13T10:46:29.374Z,24.61
2023-05-13T10:47:29.309Z,24.60
2023-05-13T10:48:29.401Z,24.60
2023-05-13T10:49:29.249Z,24.60
2023-05-13T10:50:29.258Z,24.61
2023-05-13T10:51:29.278Z,24.62
2023-05-13T10:52:29.321Z,24.62
2023-05-13T10:53:29.401Z,24.62
2023-05-13T10:54:29.408Z,24.63
2023-05-13T10:55:29.483Z,24.62
2023-05-13T10:56:29.516Z,24.63
2023-05-13T10:57:29.490Z,24.63
2023-05-13T10:58:29.540Z,24.63
2023-05-13T10:59:29.528Z,24.62
2023-05-13T11:00:29.590Z,24.62
2023-05-13T11:01:29.739Z,24.62
2023-05-13T11:02:29.681Z,24.63
2023-05-13T11:03:29.912Z,24.62
2023-05-13T11:04:29.755Z,24.62
2023-05-13T11:05:29.854Z,24.63
2023-05-13T11:06:29.829Z,24.61
2023-05-13T11:07:29.899Z,24.62
2023-05-13T11:08:29.884Z,24.62
2023-05-13T11:09:29.947Z,24.62
2023-05-13T11:10:30.027Z,24.62
2023-05-13T11:11:30.047Z,24.62
2023-05-13T11:12:30.088Z,24.62
2023-05-13T11:13:30.143Z,24.62
2023-05-13T11:14:30.210Z,24.62
2023-05-13T11:15:30.222Z,24.62
2023-05-13T11:16:30.281Z,24.61
2023-05-13T11:17:30.276Z,24.61
2023-05-13T11:18:30.381Z,24.61
2023-05-13T11:19:30.394Z,24.62
2023-05-13T11:20:32.420Z,24.62
2023-05-13T11:21:31.375Z,24.62
2023-05-13T11:22:30.385Z,24.63
2023-05-13T11:23:30.373Z,24.62
2023-05-13T11:24:30.350Z,24.63
2023-05-13T11:25:30.367Z,24.63
2023-05-13T11:26:30.357Z,24.63
2023-05-13T11:27:30.381Z,24.64
2023-05-13T11:28:30.339Z,24.64
2023-05-13T11:29:30.351Z,24.65
2023-05-13T11:30:30.337Z,24.66
2023-05-13T11:31:30.470Z,24.68
2023-05-13T11:32:30.432Z,24.68
2023-05-13T11:33:30.464Z,24.69
2023-05-13T11:34:30.504Z,24.70
2023-05-13T11:35:30.545Z,24.71
2023-05-13T11:36:30.556Z,24.72
2023-05-13T11:37:30.611Z,24.74
2023-05-13T11:38:30.656Z,24.75
2023-05-13T11:39:30.700Z,24.77
2023-05-13T11:40:30.731Z,24.79
2023-05-13T11:41:30.775Z,24.79
2023-05-13T11:42:30.814Z,24.79
2023-05-13T11:43:32.384Z,24.81
2023-05-13T11:44:30.860Z,24.81
2023-05-13T11:45:30.885Z,24.82
2023-05-13T11:46:30.851Z,24.82
2023-05-13T11:47:30.852Z,24.83
2023-05-13T11:48:30.803Z,24.83
2023-05-13T11:49:30.799Z,24.83
2023-05-13T11:50:31.061Z,24.84
2023-05-13T11:51:30.781Z,24.84
2023-05-13T11:52:30.797Z,24.85
2023-05-13T11:53:30.766Z,24.85
2023-05-13T11:54:30.752Z,24.85
2023-05-13T11:55:30.748Z,24.86
2023-05-13T11:56:30.752Z,24.87
2023-05-13T11:57:30.750Z,24.87
2023-05-13T11:58:30.751Z,24.88
2023-05-13T11:59:38.609Z,24.89
2023-05-13T12:00:31.725Z,24.88
2023-05-13T12:01:30.733Z,24.88
2023-05-13T12:02:30.833Z,24.88
2023-05-13T12:03:30.753Z,24.87
2023-05-13T12:04:30.713Z,24.89
2023-05-13T12:05:30.762Z,24.89
2023-05-13T12:06:30.667Z,24.89
2023-05-13T12:07:30.679Z,24.90
2023-05-13T12:08:30.668Z,24.90
2023-05-13T12:09:30.685Z,24.90
2023-05-13T12:10:30.672Z,24.91
2023-05-13T12:11:30.649Z,24.91
2023-05-13T12:12:30.673Z,24.92
2023-05-13T12:13:30.691Z,24.91
2023-05-13T12:14:30.744Z,24.92
2023-05-13T12:15:30.783Z,24.92
2023-05-13T12:16:30.852Z,24.92
2023-05-13T12:17:30.843Z,24.92
2023-05-13T12:18:30.897Z,24.94
2023-05-13T12:19:30.916Z,24.93
2023-05-13T12:20:30.945Z,24.94
2023-05-13T12:21:30.987Z,24.95
2023-05-13T12:22:30.999Z,24.95
2023-05-13T12:23:31.047Z,24.96
2023-05-13T12:24:31.051Z,24.96
2023-05-13T12:25:31.078Z,24.97
2023-05-13T12:26:31.130Z,24.97
2023-05-13T12:27:31.164Z,24.97
2023-05-13T12:28:31.222Z,24.97
2023-05-13T12:29:31.262Z,24.97
2023-05-13T12:30:31.266Z,24.97
2023-05-13T12:31:31.369Z,24.97
2023-05-13T12:32:31.306Z,24.97
2023-05-13T12:33:31.316Z,24.98
2023-05-13T12:34:31.336Z,24.98
2023-05-13T12:35:31.345Z,24.99
2023-05-13T12:36:31.390Z,24.99
2023-05-13T12:37:31.403Z,24.99
2023-05-13T12:38:31.476Z,25.00
2023-05-13T12:39:31.496Z,25.00
2023-05-13T12:40:31.555Z,25.00
2023-05-13T12:41:31.566Z,25.00
2023-05-13T12:42:31.621Z,24.99
2023-05-13T12:43:31.676Z,24.98
2023-05-13T12:44:31.723Z,24.98
2023-05-13T12:45:31.743Z,24.99
2023-05-13T12:46:31.814Z,25.00
2023-05-13T12:47:31.865Z,25.00
2023-05-13T12:48:31.849Z,25.00
2023-05-13T12:49:31.878Z,25.00
2023-05-13T12:50:31.869Z,25.01
2023-05-13T12:51:31.889Z,25.01
2023-05-13T12:52:31.920Z,25.01